Time;durP1;ratioP1;P1;durP2;ratioP2;P2;SDS_P1;SDS_P2;PMS_P1;PMS_P2;Temp;Humidity;BMP_temperature;BMP_pressure;BME280_temperature;BME280_humidity;BME280_pressure;Samples;Min_cycle;Max_cycle;Signal;HPM_P1;HPM_P2
2021/09/09 00:01:42;0.00;0.00;0.62;0.00;0.00;0.62;11.70;9.07;;;28.40;30.20;;;;;;2256832;61;20383;-58
2021/09/09 00:04:27;0.00;0.00;0.62;0.00;0.00;0.62;11.50;10.33;;;28.40;30.20;;;;;;2257725;61;20355;-57
2021/09/09 00:07:15;0.00;0.00;0.62;0.00;0.00;0.62;10.87;9.77;;;28.40;30.20;;;;;;2258185;61;20358;-58
2021/09/09 00:10:00;0.00;0.00;0.62;0.00;0.00;0.62;20.87;10.03;;;28.40;30.20;;;;;;2257191;61;20607;-55
2021/09/09 00:12:45;0.00;0.00;0.62;0.00;0.00;0.62;10.33;9.27;;;28.40;30.30;;;;;;2258292;61;20394;-57
2021/09/09 00:15:31;0.00;0.00;0.62;0.00;0.00;0.62;10.93;9.83;;;28.40;30.30;;;;;;2257335;61;20406;-56
2021/09/09 00:18:15;0.00;0.00;0.62;0.00;0.00;0.62;11.07;9.97;;;28.40;30.30;;;;;;2257940;61;20410;-59
2021/09/09 00:21:00;0.00;0.00;0.62;0.00;0.00;0.62;10.70;9.70;;;28.40;30.30;;;;;;2258262;61;20378;-56
2021/09/09 00:23:46;0.00;0.00;0.62;0.00;0.00;0.62;11.27;10.17;;;28.30;30.30;;;;;;2256808;61;20410;-54
2021/09/09 00:26:32;0.00;0.00;0.62;0.00;0.00;0.62;10.67;9.50;;;28.30;30.40;;;;;;2258203;61;20570;-58
2021/09/09 00:29:16;0.00;0.00;0.62;0.00;0.00;0.62;11.70;10.50;;;28.30;30.40;;;;;;2258343;61;20781;-57
2021/09/09 00:32:04;0.00;0.00;0.62;0.00;0.00;0.62;11.13;10.03;;;28.30;30.40;;;;;;2256977;61;20741;-56
2021/09/09 00:34:50;0.00;0.00;0.62;0.00;0.00;0.62;12.03;10.83;;;28.20;30.30;;;;;;2258216;61;20410;-58
2021/09/09 00:37:36;0.00;0.00;0.62;0.00;0.00;0.62;12.30;10.60;;;28.20;30.30;;;;;;2257540;61;20402;-56
2021/09/09 00:40:22;0.00;0.00;0.62;0.00;0.00;0.62;12.10;10.90;;;28.20;30.40;;;;;;2257664;61;20343;-57
2021/09/09 00:43:06;0.00;0.00;0.62;0.00;0.00;0.62;10.50;9.50;;;28.10;30.50;;;;;;2258323;61;20362;-58
2021/09/09 00:45:52;0.00;0.00;0.62;0.00;0.00;0.62;10.90;9.70;;;28.10;30.50;;;;;;2257166;61;20382;-56
2021/09/09 00:48:37;0.00;0.00;0.62;0.00;0.00;0.62;11.47;10.27;;;28.10;30.60;;;;;;2257885;61;20455;-60
2021/09/09 00:51:22;0.00;0.00;0.62;0.00;0.00;0.62;10.90;9.67;;;28.10;30.70;;;;;;2258123;61;20390;-59
2021/09/09 00:54:07;0.00;0.00;0.62;0.00;0.00;0.62;12.03;10.60;;;28.00;30.70;;;;;;2256946;61;20359;-56
2021/09/09 00:56:53;0.00;0.00;0.62;0.00;0.00;0.62;11.30;9.83;;;28.00;30.70;;;;;;2258178;61;20363;-55
2021/09/09 00:59:38;0.00;0.00;0.62;0.00;0.00;0.62;10.97;9.97;;;28.00;30.80;;;;;;2257821;61;20494;-58
2021/09/09 01:02:22;0.00;0.00;0.62;0.00;0.00;0.62;11.40;10.37;;;27.90;30.80;;;;;;2257771;61;20382;-55
2021/09/09 01:05:08;0.00;0.00;0.62;0.00;0.00;0.62;13.13;11.80;;;27.90;30.80;;;;;;2258107;61;20431;-57
2021/09/09 01:07:54;0.00;0.00;0.62;0.00;0.00;0.62;12.13;10.93;;;27.80;30.80;;;;;;2257212;61;20366;-55
2021/09/09 01:10:39;0.00;0.00;0.62;0.00;0.00;0.62;13.13;11.17;;;27.80;30.90;;;;;;2257691;61;20391;-57
2021/09/09 01:13:25;0.00;0.00;0.62;0.00;0.00;0.62;11.67;10.57;;;27.80;31.00;;;;;;2258078;61;20410;-57
2021/09/09 01:16:10;0.00;0.00;0.62;0.00;0.00;0.62;11.47;10.37;;;27.70;31.10;;;;;;2256842;61;20569;-58
2021/09/09 01:18:54;0.00;0.00;0.62;0.00;0.00;0.62;12.43;11.33;;;27.70;31.20;;;;;;2257776;61;20359;-54
2021/09/09 01:21:39;0.00;0.00;0.62;0.00;0.00;0.62;12.07;10.97;;;27.70;31.30;;;;;;2257773;61;20375;-59
2021/09/09 01:24:25;0.00;0.00;0.62;0.00;0.00;0.62;12.10;10.80;;;27.60;31.30;;;;;;2257368;61;20431;-57
2021/09/09 01:27:09;0.00;0.00;0.62;0.00;0.00;0.62;11.70;10.70;;;27.70;31.40;;;;;;2257994;61;20690;-57
2021/09/09 01:29:54;0.00;0.00;0.62;0.00;0.00;0.62;11.70;10.60;;;27.60;31.40;;;;;;2257052;61;20413;-58
2021/09/09 01:32:39;0.00;0.00;0.62;0.00;0.00;0.62;10.67;9.67;;;27.60;31.40;;;;;;2257863;61;20455;-58
2021/09/09 01:35:23;0.00;0.00;0.62;0.00;0.00;0.62;11.03;9.93;;;27.60;31.50;;;;;;2257986;61;20414;-58
2021/09/09 01:38:19;0.00;0.00;0.62;0.00;0.00;0.62;9.97;9.03;;;27.60;31.50;;;;;;2256858;61;20498;-59
2021/09/09 01:41:05;0.00;0.00;0.62;0.00;0.00;0.62;10.63;9.60;;;27.60;31.60;;;;;;2257890;61;20367;-58
2021/09/09 01:43:50;0.00;0.00;0.62;0.00;0.00;0.62;13.63;10.00;;;27.60;31.60;;;;;;2257811;61;20478;-57
2021/09/09 01:46:34;0.00;0.00;0.62;0.00;0.00;0.62;11.17;10.10;;;27.60;31.60;;;;;;2256817;61;20655;-56
2021/09/09 01:49:22;0.00;0.00;0.62;0.00;0.00;0.62;11.27;10.27;;;27.60;31.70;;;;;;2257866;61;20363;-59
2021/09/09 01:52:07;0.00;0.00;0.62;0.00;0.00;0.62;12.30;11.00;;;27.60;31.60;;;;;;2257068;61;20410;-57
2021/09/09 01:54:51;0.00;0.00;0.62;0.00;0.00;0.62;12.10;10.90;;;27.60;31.60;;;;;;2257749;61;20358;-59
2021/09/09 01:57:37;0.00;0.00;0.62;0.00;0.00;0.62;11.23;10.13;;;27.60;32.40;;;;;;2258052;61;20389;-56
2021/09/09 02:00:21;0.00;0.00;0.62;0.00;0.00;0.62;12.27;11.17;;;27.50;32.40;;;;;;2256555;61;20358;-57
2021/09/09 02:03:06;0.00;0.00;0.62;0.00;0.00;0.62;12.13;10.97;;;27.50;31.70;;;;;;2257887;61;20363;-59
2021/09/09 02:05:50;0.00;0.00;0.62;0.00;0.00;0.62;13.37;12.07;;;27.40;31.70;;;;;;2257896;61;20572;-57
2021/09/09 02:08:35;0.00;0.00;0.62;0.00;0.00;0.62;12.50;11.20;;;27.40;31.70;;;;;;2257155;61;20390;-56
2021/09/09 02:11:21;0.00;0.00;0.62;0.00;0.00;0.62;12.30;11.13;;;27.40;31.70;;;;;;2257672;61;20623;-59
2021/09/09 02:14:06;0.00;0.00;0.62;0.00;0.00;0.62;12.13;11.03;;;27.40;31.70;;;;;;2257046;61;20366;-58
2021/09/09 02:16:52;0.00;0.00;0.62;0.00;0.00;0.62;12.50;11.30;;;27.40;31.70;;;;;;2257546;61;20363;-58
2021/09/09 02:19:36;0.00;0.00;0.62;0.00;0.00;0.62;16.13;12.80;;;27.30;31.60;;;;;;2257822;61;20367;-54
2021/09/09 02:22:21;0.00;0.00;0.62;0.00;0.00;0.62;13.53;10.67;;;27.30;31.60;;;;;;2256954;61;20395;-53
2021/09/09 02:25:07;0.00;0.00;0.62;0.00;0.00;0.62;13.90;12.50;;;27.30;31.60;;;;;;2257793;61;20366;-57
2021/09/09 02:27:52;0.00;0.00;0.62;0.00;0.00;0.62;12.00;10.90;;;27.30;31.60;;;;;;2257860;61;20363;-58
2021/09/09 02:30:37;0.00;0.00;0.62;0.00;0.00;0.62;11.53;10.43;;;27.20;31.70;;;;;;2256693;61;20429;-55
2021/09/09 02:33:22;0.00;0.00;0.62;0.00;0.00;0.62;10.70;9.70;;;27.20;31.70;;;;;;2257788;61;20367;-57
2021/09/09 02:36:07;0.00;0.00;0.62;0.00;0.00;0.62;11.63;10.33;;;27.20;31.80;;;;;;2256995;61;20594;-58
2021/09/09 02:38:51;0.00;0.00;0.62;0.00;0.00;0.62;11.67;10.57;;;27.20;31.90;;;;;;2257424;61;20355;-56
2021/09/09 02:41:36;0.00;0.00;0.62;0.00;0.00;0.62;11.13;9.97;;;27.20;31.90;;;;;;2257829;61;20383;-54
2021/09/09 02:44:21;0.00;0.00;0.62;0.00;0.00;0.62;10.67;9.67;;;27.20;31.90;;;;;;2256959;61;20726;-57
2021/09/09 02:47:08;0.00;0.00;0.62;0.00;0.00;0.62;11.37;10.27;;;27.20;31.90;;;;;;2257424;61;20363;-56
2021/09/09 02:49:52;0.00;0.00;0.62;0.00;0.00;0.62;11.43;10.03;;;27.30;32.00;;;;;;2257858;61;20438;-59
2021/09/09 02:52:37;0.00;0.00;0.62;0.00;0.00;0.62;11.03;9.93;;;27.30;31.90;;;;;;2252577;61;20371;-58
2021/09/09 02:55:21;0.00;0.00;0.62;0.00;0.00;0.62;10.67;9.60;;;27.30;31.90;;;;;;2253751;61;20408;-58
2021/09/09 02:58:06;0.00;0.00;0.62;0.00;0.00;0.62;11.70;10.50;;;27.30;31.90;;;;;;2253774;61;20403;-59
2021/09/09 03:00:50;0.00;0.00;0.62;0.00;0.00;0.62;12.67;11.40;;;27.30;31.80;;;;;;2253249;61;20503;-57
2021/09/09 03:03:36;0.00;0.00;0.62;0.00;0.00;0.62;11.20;10.13;;;27.30;31.80;;;;;;2253771;61;20406;-57
2021/09/09 03:06:21;0.00;0.00;0.62;0.00;0.00;0.62;12.13;10.93;;;27.30;31.80;;;;;;2252830;61;20827;-57
2021/09/09 03:09:05;0.00;0.00;0.62;0.00;0.00;0.62;11.87;10.70;;;27.30;31.80;;;;;;2253414;61;20436;-56
2021/09/09 03:11:50;0.00;0.00;0.62;0.00;0.00;0.62;12.33;11.13;;;27.30;31.90;;;;;;2253780;61;20390;-59
2021/09/09 03:14:34;0.00;0.00;0.62;0.00;0.00;0.62;12.07;10.87;;;27.30;31.80;;;;;;2252522;61;20359;-58
2021/09/09 03:17:20;0.00;0.00;0.62;0.00;0.00;0.62;14.30;12.80;;;27.30;31.90;;;;;;2253384;61;20471;-56
2021/09/09 03:20:08;0.00;0.00;0.62;0.00;0.00;0.62;12.60;11.37;;;27.20;31.80;;;;;;2253592;61;20360;-58
2021/09/09 03:22:52;0.00;0.00;0.62;0.00;0.00;0.62;11.93;10.70;;;27.30;32.00;;;;;;2253229;61;20395;-57
2021/09/09 03:25:37;0.00;0.00;0.62;0.00;0.00;0.62;12.93;11.63;;;27.20;32.00;;;;;;2253773;61;20364;-58
2021/09/09 03:28:21;0.00;0.00;0.62;0.00;0.00;0.62;13.77;12.47;;;27.20;32.00;;;;;;2252873;61;20364;-57
2021/09/09 03:31:06;0.00;0.00;0.62;0.00;0.00;0.62;13.87;12.47;;;27.20;32.00;;;;;;2253157;61;20411;-59
2021/09/09 03:33:51;0.00;0.00;0.62;0.00;0.00;0.62;13.63;12.23;;;27.20;32.00;;;;;;2253851;61;20537;-57
2021/09/09 03:36:37;0.00;0.00;0.62;0.00;0.00;0.62;14.40;12.50;;;27.10;31.90;;;;;;2252243;61;20363;-54
2021/09/09 03:39:21;0.00;0.00;0.62;0.00;0.00;0.62;13.33;12.03;;;27.10;32.00;;;;;;2253633;61;20367;-57
2021/09/09 03:42:06;0.00;0.00;0.62;0.00;0.00;0.62;13.03;11.13;;;27.10;32.10;;;;;;2254381;61;20379;-57
2021/09/09 03:44:50;0.00;0.00;0.62;0.00;0.00;0.62;12.67;11.37;;;27.00;32.10;;;;;;2253425;61;20407;-55
2021/09/09 03:47:35;0.00;0.00;0.62;0.00;0.00;0.62;13.03;11.73;;;27.00;32.20;;;;;;2254304;61;20714;-57
2021/09/09 03:50:19;0.00;0.00;0.62;0.00;0.00;0.62;12.27;11.03;;;27.00;32.30;;;;;;2253269;61;20459;-58
2021/09/09 03:53:05;0.00;0.00;0.62;0.00;0.00;0.62;13.00;11.67;;;26.90;32.30;;;;;;2254130;61;20359;-54
2021/09/09 03:55:49;0.00;0.00;0.62;0.00;0.00;0.62;12.93;11.63;;;26.90;32.40;;;;;;2254420;61;20367;-57
2021/09/09 03:58:34;0.00;0.00;0.62;0.00;0.00;0.62;12.07;10.97;;;26.90;32.50;;;;;;2253387;61;20432;-57
2021/09/09 04:01:19;0.00;0.00;0.62;0.00;0.00;0.62;11.43;10.30;;;26.90;32.40;;;;;;2254337;61;20457;-55
2021/09/09 04:04:03;0.00;0.00;0.62;0.00;0.00;0.62;12.30;11.13;;;26.90;32.50;;;;;;2254464;61;20367;-58
2021/09/09 04:06:48;0.00;0.00;0.62;0.00;0.00;0.62;11.17;10.10;;;26.90;32.60;;;;;;2253452;61;20628;-59
2021/09/09 04:09:36;0.00;0.00;0.62;0.00;0.00;0.62;11.73;10.53;;;26.90;32.60;;;;;;2254306;61;20364;-58
2021/09/09 04:12:21;0.00;0.00;0.62;0.00;0.00;0.62;11.60;10.50;;;26.90;32.60;;;;;;2253260;61;20406;-56
2021/09/09 04:15:07;0.00;0.00;0.62;0.00;0.00;0.62;12.13;10.90;;;26.90;32.60;;;;;;2254001;61;20366;-58
2021/09/09 04:17:52;0.00;0.00;0.62;0.00;0.00;0.62;11.87;10.70;;;26.90;32.60;;;;;;2254272;61;20718;-58
2021/09/09 04:20:37;0.00;0.00;0.62;0.00;0.00;0.62;12.07;10.97;;;26.90;32.60;;;;;;2253290;61;20399;-57
2021/09/09 04:23:21;0.00;0.00;0.62;0.00;0.00;0.62;12.27;10.90;;;26.90;32.60;;;;;;2254257;61;20359;-55
2021/09/09 04:26:07;0.00;0.00;0.62;0.00;0.00;0.62;11.23;10.20;;;26.90;32.60;;;;;;2254081;61;20440;-55
2021/09/09 04:28:51;0.00;0.00;0.62;0.00;0.00;0.62;13.70;12.40;;;26.90;32.50;;;;;;2253385;61;20364;-58
2021/09/09 04:31:36;0.00;0.00;0.62;0.00;0.00;0.62;12.80;11.50;;;26.90;32.50;;;;;;2254086;61;20395;-57
2021/09/09 04:34:20;0.00;0.00;0.62;0.00;0.00;0.62;11.70;10.50;;;26.90;32.50;;;;;;2254019;61;20395;-58
2021/09/09 04:37:05;0.00;0.00;0.62;0.00;0.00;0.62;11.97;10.77;;;26.90;32.60;;;;;;2253979;61;20438;-56
2021/09/09 04:39:49;0.00;0.00;0.62;0.00;0.00;0.62;12.40;11.17;;;26.90;32.60;;;;;;2254011;61;20674;-57
2021/09/09 04:42:36;0.00;0.00;0.62;0.00;0.00;0.62;11.23;10.20;;;26.90;32.60;;;;;;2253436;61;20364;-56
2021/09/09 04:45:20;0.00;0.00;0.62;0.00;0.00;0.62;12.73;11.53;;;26.90;32.60;;;;;;2253946;61;20492;-57
2021/09/09 04:48:06;0.00;0.00;0.62;0.00;0.00;0.62;14.87;10.90;;;26.90;32.60;;;;;;2253958;61;20407;-57
2021/09/09 04:50:51;0.00;0.00;0.62;0.00;0.00;0.62;13.17;11.87;;;26.90;32.60;;;;;;2252581;61;20455;-58
2021/09/09 04:53:35;0.00;0.00;0.62;0.00;0.00;0.62;11.27;10.23;;;26.80;32.50;;;;;;2254043;61;20766;-56
2021/09/09 04:56:19;0.00;0.00;0.62;0.00;0.00;0.62;11.83;10.63;;;26.90;32.60;;;;;;2253919;61;20371;-58
2021/09/09 04:59:05;0.00;0.00;0.62;0.00;0.00;0.62;11.47;10.37;;;26.80;32.50;;;;;;2253824;61;20403;-58
2021/09/09 05:01:50;0.00;0.00;0.62;0.00;0.00;0.62;16.60;12.80;;;26.80;32.60;;;;;;2253960;61;20450;-57
2021/09/09 05:04:37;0.00;0.00;0.62;0.00;0.00;0.62;12.77;11.50;;;26.80;32.60;;;;;;2253337;61;20643;-58
2021/09/09 05:07:22;0.00;0.00;0.62;0.00;0.00;0.62;12.67;11.47;;;26.80;32.60;;;;;;2253840;61;20623;-57
2021/09/09 05:10:08;0.00;0.00;0.62;0.00;0.00;0.62;12.53;11.43;;;26.70;32.60;;;;;;2254031;61;20411;-58
2021/09/09 05:12:52;0.00;0.00;0.62;0.00;0.00;0.62;13.43;12.03;;;26.70;32.70;;;;;;2253002;61;20580;-57
2021/09/09 05:15:38;0.00;0.00;0.62;0.00;0.00;0.62;15.07;11.57;;;26.70;32.70;;;;;;2253981;61;20360;-56
2021/09/09 05:18:22;0.00;0.00;0.62;0.00;0.00;0.62;12.43;11.13;;;26.70;32.80;;;;;;2254050;61;20383;-57
2021/09/09 05:21:07;0.00;0.00;0.62;0.00;0.00;0.62;13.23;11.90;;;26.70;32.90;;;;;;2253093;61;20395;-54
2021/09/09 05:23:52;0.00;0.00;0.62;0.00;0.00;0.62;13.03;11.77;;;26.60;32.80;;;;;;2253966;61;20359;-59
2021/09/09 05:26:36;0.00;0.00;0.62;0.00;0.00;0.62;12.80;11.50;;;26.60;32.90;;;;;;2253162;61;20779;-57
2021/09/09 05:29:22;0.00;0.00;0.62;0.00;0.00;0.62;12.03;10.83;;;26.60;32.90;;;;;;2253517;61;20359;-57
2021/09/09 05:32:09;0.00;0.00;0.62;0.00;0.00;0.62;11.83;10.57;;;26.60;33.00;;;;;;2254053;61;20372;-54
2021/09/09 05:34:53;0.00;0.00;0.62;0.00;0.00;0.62;11.93;10.73;;;26.50;33.00;;;;;;2253112;61;20380;-58
2021/09/09 05:37:38;0.00;0.00;0.62;0.00;0.00;0.62;13.97;12.53;;;26.60;33.00;;;;;;2254002;61;20415;-57
2021/09/09 05:40:22;0.00;0.00;0.62;0.00;0.00;0.62;12.43;11.33;;;26.50;33.00;;;;;;2253978;61;20396;-58
2021/09/09 05:43:07;0.00;0.00;0.62;0.00;0.00;0.62;13.47;11.97;;;26.50;33.00;;;;;;2252953;61;20364;-58
2021/09/09 05:45:51;0.00;0.00;0.62;0.00;0.00;0.62;12.40;11.17;;;26.50;33.00;;;;;;2254027;61;20359;-58
2021/09/09 05:48:37;0.00;0.00;0.62;0.00;0.00;0.62;12.43;11.13;;;26.50;33.00;;;;;;2253130;61;20559;-57
2021/09/09 05:51:21;0.00;0.00;0.62;0.00;0.00;0.62;11.90;10.80;;;26.50;33.10;;;;;;2253498;61;20462;-56
2021/09/09 05:54:06;0.00;0.00;0.62;0.00;0.00;0.62;13.03;11.80;;;26.50;33.10;;;;;;2254111;61;20367;-57
2021/09/09 05:56:50;0.00;0.00;0.62;0.00;0.00;0.62;15.00;11.07;;;26.40;33.10;;;;;;2253020;61;20407;-53
2021/09/09 05:59:35;0.00;0.00;0.62;0.00;0.00;0.62;12.70;11.53;;;26.40;33.90;;;;;;2253845;61;20587;-58
2021/09/09 06:02:21;0.00;0.00;0.62;0.00;0.00;0.62;13.50;12.23;;;26.40;33.20;;;;;;2253996;61;20439;-57
2021/09/09 06:05:08;0.00;0.00;0.62;0.00;0.00;0.62;13.27;11.80;;;26.40;33.20;;;;;;2252603;61;20363;-56
2021/09/09 06:07:53;0.00;0.00;0.62;0.00;0.00;0.62;15.50;12.53;;;26.40;33.30;;;;;;2254006;61;20367;-54
2021/09/09 06:10:37;0.00;0.00;0.62;0.00;0.00;0.62;13.53;12.20;;;26.40;33.30;;;;;;2253167;61;20435;-56
2021/09/09 06:13:22;0.00;0.00;0.62;0.00;0.00;0.62;15.60;13.23;;;26.40;33.40;;;;;;2253531;61;20355;-56
2021/09/09 06:16:06;0.00;0.00;0.62;0.00;0.00;0.62;13.50;12.20;;;26.30;33.30;;;;;;2253978;61;20407;-54
2021/09/09 06:18:51;0.00;0.00;0.62;0.00;0.00;0.62;11.57;10.40;;;26.30;33.40;;;;;;2252956;61;20359;-57
2021/09/09 06:21:37;0.00;0.00;0.62;0.00;0.00;0.62;13.07;11.80;;;26.30;33.40;;;;;;2253625;61;20383;-55
2021/09/09 06:24:21;0.00;0.00;0.62;0.00;0.00;0.62;13.67;12.27;;;26.30;33.50;;;;;;2253913;61;20439;-58
2021/09/09 06:27:06;0.00;0.00;0.62;0.00;0.00;0.62;13.90;12.00;;;26.30;33.50;;;;;;2252470;61;20363;-57
2021/09/09 06:29:51;0.00;0.00;0.62;0.00;0.00;0.62;12.03;10.83;;;26.30;33.60;;;;;;2253924;61;20419;-56
2021/09/09 06:32:35;0.00;0.00;0.62;0.00;0.00;0.62;12.90;11.50;;;26.30;33.60;;;;;;2253684;61;20368;-58
2021/09/09 06:35:20;0.00;0.00;0.62;0.00;0.00;0.62;12.90;11.53;;;26.30;33.70;;;;;;2253503;61;20790;-58
2021/09/09 06:38:06;0.00;0.00;0.62;0.00;0.00;0.62;13.00;11.70;;;26.30;33.80;;;;;;2254074;61;20485;-57
2021/09/09 06:40:50;0.00;0.00;0.62;0.00;0.00;0.62;14.67;12.30;;;26.30;33.80;;;;;;2252748;61;20601;-57
2021/09/09 06:43:35;0.00;0.00;0.62;0.00;0.00;0.62;13.47;12.10;;;26.30;33.80;;;;;;2253600;61;20442;-58
2021/09/09 06:46:19;0.00;0.00;0.62;0.00;0.00;0.62;12.33;11.00;;;26.30;33.80;;;;;;2253830;61;20383;-55
2021/09/09 06:49:04;0.00;0.00;0.62;0.00;0.00;0.62;12.93;11.60;;;26.30;33.80;;;;;;2252526;61;20403;-56
2021/09/09 06:51:48;0.00;0.00;0.62;0.00;0.00;0.62;13.27;11.87;;;26.30;33.80;;;;;;2253841;61;20823;-55
2021/09/09 06:54:34;0.00;0.00;0.62;0.00;0.00;0.62;11.67;10.47;;;26.30;33.90;;;;;;2253618;61;20399;-55
2021/09/09 06:57:18;0.00;0.00;0.62;0.00;0.00;0.62;15.33;11.00;;;26.30;33.90;;;;;;2252750;61;20438;-59
2021/09/09 07:00:05;0.00;0.00;0.62;0.00;0.00;0.62;11.43;9.90;;;26.30;33.90;;;;;;2253629;61;20419;-58
2021/09/09 07:02:49;0.00;0.00;0.62;0.00;0.00;0.62;11.60;10.50;;;26.30;33.90;;;;;;2252232;61;20363;-57
2021/09/09 07:05:34;0.00;0.00;0.62;0.00;0.00;0.62;11.93;10.70;;;26.30;34.00;;;;;;2253482;61;20363;-58
2021/09/09 07:08:19;0.00;0.00;0.62;0.00;0.00;0.62;12.63;10.90;;;26.30;33.90;;;;;;2253833;61;20679;-55
2021/09/09 07:11:04;0.00;0.00;0.62;0.00;0.00;0.62;15.10;11.57;;;26.30;33.80;;;;;;2253028;61;20637;-57
2021/09/09 07:13:49;0.00;0.00;0.62;0.00;0.00;0.62;12.47;11.17;;;26.40;33.90;;;;;;2253962;61;20384;-56
2021/09/09 07:16:34;0.00;0.00;0.62;0.00;0.00;0.62;12.97;11.73;;;26.40;33.90;;;;;;2253703;61;20422;-60
2021/09/09 07:19:18;0.00;0.00;0.62;0.00;0.00;0.62;13.13;11.80;;;26.40;33.90;;;;;;2253215;61;20387;-57
2021/09/09 07:22:03;0.00;0.00;0.62;0.00;0.00;0.62;14.53;11.70;;;26.40;33.80;;;;;;2253876;61;20425;-54
2021/09/09 07:24:48;0.00;0.00;0.62;0.00;0.00;0.62;17.37;11.97;;;26.40;33.80;;;;;;2252878;61;20459;-53
2021/09/09 07:27:34;0.00;0.00;0.62;0.00;0.00;0.62;12.20;11.00;;;26.30;33.70;;;;;;2253534;61;20391;-52
2021/09/09 07:30:19;0.00;0.00;0.62;0.00;0.00;0.62;12.13;10.90;;;26.30;33.80;;;;;;2253651;61;20391;-59
2021/09/09 07:33:04;0.00;0.00;0.62;0.00;0.00;0.62;12.73;11.53;;;26.30;33.90;;;;;;2253189;61;20407;-59
2021/09/09 07:35:49;0.00;0.00;0.62;0.00;0.00;0.62;13.47;12.07;;;26.30;33.90;;;;;;2253770;61;20410;-58
2021/09/09 07:38:34;0.00;0.00;0.62;0.00;0.00;0.62;14.20;11.73;;;26.30;34.00;;;;;;2253727;61;20383;-58
2021/09/09 07:41:18;0.00;0.00;0.62;0.00;0.00;0.62;10.47;9.47;;;26.30;34.10;;;;;;2252656;61;20788;-55
2021/09/09 07:44:05;0.00;0.00;0.62;0.00;0.00;0.62;14.17;9.90;;;26.30;34.10;;;;;;2253660;61;20407;-57
2021/09/09 07:46:49;0.00;0.00;0.62;0.00;0.00;0.62;9.93;8.90;;;26.30;34.20;;;;;;2253082;61;20363;-60
2021/09/09 07:49:34;0.00;0.00;0.62;0.00;0.00;0.62;11.17;10.17;;;26.30;34.10;;;;;;2253434;61;20364;-56
2021/09/09 07:52:18;0.00;0.00;0.62;0.00;0.00;0.62;12.13;10.70;;;26.30;34.20;;;;;;2253624;61;20383;-54
2021/09/09 07:55:04;0.00;0.00;0.62;0.00;0.00;0.62;10.70;9.67;;;26.30;34.10;;;;;;2252579;61;20363;-59
2021/09/09 07:57:49;0.00;0.00;0.62;0.00;0.00;0.62;11.30;10.20;;;26.30;34.10;;;;;;2257070;61;20430;-51
2021/09/09 08:00:35;0.00;0.00;0.62;0.00;0.00;0.62;12.40;11.00;;;26.30;34.10;;;;;;2257490;61;20497;-55
2021/09/09 08:03:19;0.00;0.00;0.62;0.00;0.00;0.62;12.53;11.33;;;26.40;34.10;;;;;;2256718;61;20750;-53
2021/09/09 08:06:04;0.00;0.00;0.62;0.00;0.00;0.62;11.37;10.27;;;26.40;34.10;;;;;;2257538;61;20363;-56
2021/09/09 08:08:49;0.00;0.00;0.62;0.00;0.00;0.62;11.00;9.90;;;26.40;34.00;;;;;;2257652;61;20375;-56
2021/09/09 08:11:35;0.00;0.00;0.62;0.00;0.00;0.62;13.00;10.37;;;26.40;33.90;;;;;;2257122;61;20414;-55
2021/09/09 08:14:20;0.00;0.00;0.62;0.00;0.00;0.62;9.97;8.97;;;26.40;33.90;;;;;;2257603;61;20355;-56
2021/09/09 08:17:06;0.00;0.00;0.62;0.00;0.00;0.62;10.20;8.97;;;26.40;34.00;;;;;;2256817;61;20771;-56
2021/09/09 08:19:50;0.00;0.00;0.62;0.00;0.00;0.62;10.07;9.07;;;26.40;34.00;;;;;;2257288;61;20719;-56
2021/09/09 08:22:35;0.00;0.00;0.62;0.00;0.00;0.62;10.23;9.17;;;26.40;34.00;;;;;;2257614;61;20697;-54
2021/09/09 08:25:20;0.00;0.00;0.62;0.00;0.00;0.62;10.73;9.63;;;26.40;33.90;;;;;;2256383;61;20737;-49
2021/09/09 08:28:05;0.00;0.00;0.62;0.00;0.00;0.62;9.37;8.47;;;26.40;34.00;;;;;;2258025;61;20379;-58
2021/09/09 08:30:50;0.00;0.00;0.62;0.00;0.00;0.62;9.63;8.73;;;26.50;34.00;;;;;;2258029;61;20517;-56
2021/09/09 08:33:26;0.00;0.00;0.62;0.00;0.00;0.62;10.10;9.10;;;26.50;34.00;;;;;;2257368;61;20356;-50
2021/09/09 08:35:52;0.00;0.00;0.62;0.00;0.00;0.62;10.50;9.40;;;26.50;34.00;;;;;;2258240;61;20779;-54
2021/09/09 08:38:18;0.00;0.00;0.62;0.00;0.00;0.62;9.50;8.60;;;26.50;33.90;;;;;;2258212;61;20367;-55
2021/09/09 08:40:49;0.00;0.00;0.62;0.00;0.00;0.62;9.00;8.10;;;26.50;33.90;;;;;;2256649;61;20379;-56
2021/09/09 08:43:33;0.00;0.00;0.62;0.00;0.00;0.62;10.17;8.73;;;26.50;33.90;;;;;;2257839;61;20418;-57
2021/09/09 08:46:18;0.00;0.00;0.62;0.00;0.00;0.62;10.47;9.47;;;26.60;33.80;;;;;;2257437;61;20386;-57
2021/09/09 08:49:04;0.00;0.00;0.62;0.00;0.00;0.62;10.20;9.30;;;26.60;33.80;;;;;;2257796;61;20575;-56
2021/09/09 08:51:49;0.00;0.00;0.62;0.00;0.00;0.62;8.70;7.90;;;26.70;33.80;;;;;;2258183;61;20409;-53
2021/09/09 08:54:34;0.00;0.00;0.62;0.00;0.00;0.62;9.83;8.93;;;26.70;33.80;;;;;;2257418;61;20630;-53
2021/09/09 08:57:20;0.00;0.00;0.62;0.00;0.00;0.62;9.23;8.33;;;26.70;33.70;;;;;;2258169;61;20354;-56
2021/09/09 09:00:06;0.00;0.00;0.62;0.00;0.00;0.62;10.57;8.37;;;26.80;33.70;;;;;;2258169;61;20516;-55
2021/09/09 09:02:53;0.00;0.00;0.62;0.00;0.00;0.62;8.83;8.03;;;26.80;33.60;;;;;;2256799;61;20358;-55
2021/09/09 09:05:39;0.00;0.00;0.62;0.00;0.00;0.62;9.30;8.20;;;26.80;33.60;;;;;;2258233;61;20698;-57
2021/09/09 09:08:24;0.00;0.00;0.62;0.00;0.00;0.62;9.60;8.20;;;26.90;33.70;;;;;;2257272;61;20359;-56
2021/09/09 09:11:08;0.00;0.00;0.62;0.00;0.00;0.62;10.50;9.03;;;26.90;33.60;;;;;;2257520;61;20430;-55
2021/09/09 09:13:54;0.00;0.00;0.62;0.00;0.00;0.62;10.23;8.57;;;26.90;33.60;;;;;;2258312;61;20406;-52
2021/09/09 09:16:44;0.00;0.00;0.62;0.00;0.00;0.62;8.80;7.33;;;27.00;33.70;;;;;;2257196;61;20366;-54
2021/09/09 09:19:30;0.00;0.00;0.62;0.00;0.00;0.62;8.63;7.83;;;27.00;33.60;;;;;;2258161;61;20475;-55
2021/09/09 09:22:16;0.00;0.00;0.62;0.00;0.00;0.62;11.23;7.47;;;27.00;33.60;;;;;;2258280;61;20382;-58
2021/09/09 09:25:01;0.00;0.00;0.62;0.00;0.00;0.62;9.60;8.60;;;27.10;33.70;;;;;;2257043;61;20551;-54
2021/09/09 09:27:47;0.00;0.00;0.62;0.00;0.00;0.62;10.50;7.70;;;27.10;33.70;;;;;;2258234;61;20355;-55
2021/09/09 09:30:32;0.00;0.00;0.62;0.00;0.00;0.62;9.30;8.30;;;27.10;33.60;;;;;;2257178;61;20402;-55
2021/09/09 09:33:29;0.00;0.00;0.62;0.00;0.00;0.62;8.67;7.87;;;27.10;33.60;;;;;;2257813;61;20387;-56
2021/09/09 09:36:19;0.00;0.00;0.62;0.00;0.00;0.62;10.60;8.20;;;27.20;33.70;;;;;;2258167;61;20362;-57
2021/09/09 09:39:09;0.00;0.00;0.62;0.00;0.00;0.62;8.73;7.93;;;27.20;33.70;;;;;;2256905;61;20351;-56
2021/09/09 09:42:01;0.00;0.00;0.62;0.00;0.00;0.62;9.40;8.50;;;27.20;33.60;;;;;;2258353;61;20395;-57
2021/09/09 09:44:47;0.00;0.00;0.62;0.00;0.00;0.62;7.90;7.20;;;27.30;33.60;;;;;;2257902;61;20727;-56
2021/09/09 09:47:34;0.00;0.00;0.62;0.00;0.00;0.62;9.27;8.40;;;27.30;33.50;;;;;;2257007;61;20355;-55
2021/09/09 09:50:22;0.00;0.00;0.62;0.00;0.00;0.62;12.83;8.33;;;27.40;33.50;;;;;;2258019;61;20383;-54
2021/09/09 09:53:16;0.00;0.00;0.62;0.00;0.00;0.62;10.40;8.63;;;27.40;33.50;;;;;;2257158;61;20362;-56
2021/09/09 09:56:02;0.00;0.00;0.62;0.00;0.00;0.62;9.20;8.30;;;27.40;33.40;;;;;;2257827;61;20394;-55
2021/09/09 09:58:47;0.00;0.00;0.62;0.00;0.00;0.62;12.80;9.80;;;27.40;33.40;;;;;;2258034;61;20686;-57
2021/09/09 10:01:33;0.00;0.00;0.62;0.00;0.00;0.62;9.80;8.80;;;27.50;33.50;;;;;;2256710;61;20499;-55
2021/09/09 10:04:20;0.00;0.00;0.62;0.00;0.00;0.62;9.63;8.63;;;27.50;33.40;;;;;;2258119;61;20359;-59
2021/09/09 10:07:05;0.00;0.00;0.62;0.00;0.00;0.62;12.20;8.37;;;27.60;33.40;;;;;;2257632;61;20689;-57
2021/09/09 10:09:51;0.00;0.00;0.62;0.00;0.00;0.62;10.00;8.50;;;27.60;33.40;;;;;;2257394;61;20359;-54
2021/09/09 10:12:37;0.00;0.00;0.62;0.00;0.00;0.62;9.30;8.50;;;27.60;33.40;;;;;;2257579;61;20449;-55
2021/09/09 10:15:22;0.00;0.00;0.62;0.00;0.00;0.62;9.40;8.50;;;27.70;33.50;;;;;;2256950;61;20414;-52
2021/09/09 10:18:08;0.00;0.00;0.62;0.00;0.00;0.62;9.53;8.63;;;27.70;33.50;;;;;;2257821;61;20386;-56
2021/09/09 10:20:52;0.00;0.00;0.62;0.00;0.00;0.62;9.40;8.50;;;27.70;33.50;;;;;;2257769;61;20418;-57
2021/09/09 10:23:37;0.00;0.00;0.62;0.00;0.00;0.62;8.47;7.67;;;27.80;33.50;;;;;;2256628;61;20714;-58
2021/09/09 10:26:27;0.00;0.00;0.62;0.00;0.00;0.62;9.13;8.30;;;27.80;33.50;;;;;;2258040;61;20358;-54
2021/09/09 10:29:48;0.00;0.00;0.62;0.00;0.00;0.62;8.80;7.90;;;27.90;33.60;;;;;;2257715;61;20448;-54
2021/09/09 10:32:55;0.00;0.00;0.62;0.00;0.00;0.62;9.97;8.93;;;27.90;33.40;;;;;;2253083;61;20370;-56
2021/09/09 10:35:40;0.00;0.00;0.62;0.00;0.00;0.62;8.63;7.93;;;28.00;33.40;;;;;;2257790;61;20364;-59
2021/09/09 10:38:32;0.00;0.00;0.62;0.00;0.00;0.62;10.03;9.03;;;28.00;33.40;;;;;;2256420;61;20602;-55
2021/09/09 10:41:28;0.00;0.00;0.62;0.00;0.00;0.62;9.53;8.60;;;28.00;33.40;;;;;;2257825;61;20382;-55
2021/09/09 10:44:13;0.00;0.00;0.62;0.00;0.00;0.62;9.30;8.53;;;28.10;33.40;;;;;;2257640;61;20358;-56